createdAt,value
2022-10-31T00:01:17.681Z,55.78
2022-10-31T00:03:44.256Z,56.58
2022-10-31T00:06:10.765Z,58.92
2022-10-31T00:08:37.345Z,58.22
2022-10-31T00:11:03.943Z,57.80
2022-10-31T00:13:30.384Z,57.17
2022-10-31T00:15:56.751Z,58.53
2022-10-31T00:18:23.153Z,58.92
2022-10-31T00:20:49.493Z,59.42
2022-10-31T00:23:15.880Z,61.35
2022-10-31T00:25:42.343Z,61.45
2022-10-31T00:28:12.142Z,63.97
2022-10-31T00:30:38.546Z,61.20
2022-10-31T00:33:06.099Z,62.20
2022-10-31T00:35:33.225Z,60.88
2022-10-31T00:37:59.633Z,61.78
2022-10-31T00:40:26.318Z,62.47
2022-10-31T00:42:52.707Z,60.47
2022-10-31T00:45:19.591Z,63.65
2022-10-31T00:47:46.282Z,61.65
2022-10-31T00:50:12.690Z,59.90
2022-10-31T00:52:39.096Z,61.53
2022-10-31T00:55:05.545Z,60.47
2022-10-31T00:57:31.881Z,60.10
2022-10-31T00:59:58.310Z,59.05
2022-10-31T01:02:24.823Z,60.45
2022-10-31T01:04:51.340Z,59.90
2022-10-31T01:07:17.696Z,58.40
2022-10-31T01:09:44.063Z,62.28
2022-10-31T01:12:10.494Z,63.17
2022-10-31T01:14:36.977Z,62.70
2022-10-31T01:17:03.414Z,59.50
2022-10-31T01:19:29.856Z,60.65
2022-10-31T01:21:56.603Z,62.20
2022-10-31T01:24:23.004Z,62.95
2022-10-31T01:26:49.435Z,62.58
2022-10-31T01:29:15.937Z,63.13
2022-10-31T01:31:42.421Z,62.63
2022-10-31T01:34:14.322Z,63.00
2022-10-31T01:36:41.361Z,63.03
2022-10-31T01:39:13.714Z,62.58
2022-10-31T01:41:43.672Z,63.10
2022-10-31T01:44:15.742Z,60.30
2022-10-31T01:46:45.157Z,64.07
2022-10-31T01:49:21.985Z,61.25
2022-10-31T01:51:59.388Z,62.75
2022-10-31T01:54:30.941Z,62.65
2022-10-31T01:56:58.543Z,63.63
2022-10-31T01:59:28.438Z,62.05
2022-10-31T02:01:55.560Z,66.88
2022-10-31T02:04:25.310Z,64.30
2022-10-31T02:07:00.158Z,66.25
2022-10-31T02:09:27.909Z,63.95
2022-10-31T02:11:58.389Z,67.25
2022-10-31T02:14:27.789Z,67.47
2022-10-31T02:16:55.409Z,67.17
2022-10-31T02:19:33.583Z,69.57
2022-10-31T02:22:11.347Z,66.40
2022-10-31T02:25:07.107Z,66.15
2022-10-31T02:28:15.804Z,66.88
2022-10-31T02:30:58.896Z,64.90
2022-10-31T02:33:42.052Z,65.35
2022-10-31T02:36:27.372Z,66.22
2022-10-31T02:39:07.466Z,64.60
2022-10-31T02:41:51.919Z,66.35
2022-10-31T02:44:36.419Z,66.78
2022-10-31T02:47:07.908Z,65.53
2022-10-31T02:49:58.781Z,66.20
2022-10-31T02:52:28.079Z,64.35
2022-10-31T02:54:54.845Z,67.23
2022-10-31T02:57:28.060Z,64.95
2022-10-31T02:59:59.543Z,65.18
2022-10-31T03:02:52.565Z,67.57
2022-10-31T03:05:31.082Z,65.50
2022-10-31T03:08:12.655Z,65.82
2022-10-31T03:10:53.525Z,65.38
2022-10-31T03:13:39.827Z,63.50
2022-10-31T03:16:15.093Z,66.00
2022-10-31T03:18:50.635Z,65.70
2022-10-31T03:21:43.676Z,64.45
2022-10-31T03:24:12.407Z,65.72
2022-10-31T03:26:45.718Z,66.47
2022-10-31T03:29:15.780Z,65.32
2022-10-31T03:31:59.903Z,66.97
2022-10-31T03:34:28.424Z,68.45
2022-10-31T03:36:58.023Z,69.55
2022-10-31T03:39:25.385Z,66.68
2022-10-31T03:42:00.966Z,66.78
2022-10-31T03:44:30.298Z,67.88
2022-10-31T03:46:57.062Z,70.93
2022-10-31T03:49:23.865Z,67.53
2022-10-31T03:52:14.000Z,66.43
2022-10-31T03:54:46.382Z,68.90
2022-10-31T03:57:22.822Z,67.40
2022-10-31T03:59:58.968Z,68.95
2022-10-31T04:02:31.878Z,67.28
2022-10-31T04:04:59.944Z,69.90
2022-10-31T04:07:34.240Z,70.22
2022-10-31T04:10:04.693Z,68.55
2022-10-31T04:12:33.672Z,68.68
2022-10-31T04:15:02.616Z,67.60
2022-10-31T04:17:32.663Z,69.85
2022-10-31T04:20:02.157Z,70.50
2022-10-31T04:22:28.649Z,69.63
2022-10-31T04:24:55.301Z,68.95
2022-10-31T04:27:21.696Z,70.15
2022-10-31T04:29:50.725Z,70.80
2022-10-31T04:32:17.719Z,73.57
2022-10-31T04:34:44.091Z,73.90
2022-10-31T04:37:10.446Z,75.10
2022-10-31T04:39:36.833Z,74.38
2022-10-31T04:42:03.278Z,75.35
2022-10-31T04:44:29.787Z,74.45
2022-10-31T04:46:56.445Z,72.53
2022-10-31T04:49:23.059Z,71.90
2022-10-31T04:51:49.572Z,70.43
2022-10-31T04:54:16.002Z,72.50
2022-10-31T04:56:42.560Z,70.82
2022-10-31T04:59:08.923Z,72.18
2022-10-31T05:01:35.574Z,69.38
2022-10-31T05:04:02.301Z,68.47
2022-10-31T05:06:28.788Z,67.75
2022-10-31T05:08:55.326Z,66.88
2022-10-31T05:11:21.845Z,68.88
2022-10-31T05:13:48.209Z,70.18
2022-10-31T05:16:14.773Z,68.88
2022-10-31T05:18:41.465Z,67.82
2022-10-31T05:21:08.000Z,68.32
2022-10-31T05:23:34.392Z,70.55
2022-10-31T05:26:00.812Z,71.68
2022-10-31T05:28:27.355Z,73.85
2022-10-31T05:30:53.831Z,69.03
2022-10-31T05:33:20.165Z,76.53
2022-10-31T05:35:46.619Z,68.10
2022-10-31T05:38:13.006Z,73.70
2022-10-31T05:40:39.480Z,67.97
2022-10-31T05:43:05.896Z,67.00
2022-10-31T05:45:32.322Z,67.20
2022-10-31T05:48:01.343Z,69.75
2022-10-31T05:50:30.521Z,69.33
2022-10-31T05:52:59.062Z,69.53
2022-10-31T05:55:26.556Z,64.07
2022-10-31T05:57:53.854Z,67.57
2022-10-31T06:00:20.891Z,65.05
2022-10-31T06:02:47.433Z,68.55
2022-10-31T06:05:14.207Z,67.03
2022-10-31T06:07:40.657Z,66.78
2022-10-31T06:10:09.031Z,67.93
2022-10-31T06:12:38.487Z,66.00
2022-10-31T06:15:06.624Z,65.20
2022-10-31T06:17:34.185Z,64.15
2022-10-31T06:20:00.686Z,66.60
2022-10-31T06:22:27.616Z,66.70
2022-10-31T06:24:54.034Z,63.33
2022-10-31T06:27:20.499Z,65.13
2022-10-31T06:29:47.405Z,63.58
2022-10-31T06:32:13.907Z,63.05
2022-10-31T06:34:41.509Z,64.45
2022-10-31T06:37:08.677Z,63.40
2022-10-31T06:39:35.663Z,63.40
2022-10-31T06:42:02.707Z,65.03
2022-10-31T06:44:29.129Z,65.10
2022-10-31T06:46:55.874Z,64.50
2022-10-31T06:49:22.331Z,61.95
2022-10-31T06:51:49.984Z,62.40
2022-10-31T06:54:16.855Z,68.07
2022-10-31T06:56:43.344Z,64.03
2022-10-31T06:59:09.726Z,72.72
2022-10-31T07:01:36.194Z,66.32
2022-10-31T07:04:02.630Z,64.07
2022-10-31T07:06:29.002Z,60.80
2022-10-31T07:08:58.050Z,61.47
2022-10-31T07:11:24.649Z,61.40
2022-10-31T07:13:51.050Z,60.88
2022-10-31T07:16:17.532Z,61.78
2022-10-31T07:18:44.079Z,62.88
2022-10-31T07:21:10.532Z,67.53
2022-10-31T07:23:36.978Z,68.03
2022-10-31T07:26:03.429Z,60.08
2022-10-31T07:28:29.840Z,60.83
2022-10-31T07:30:58.151Z,59.20
2022-10-31T07:33:26.994Z,53.72
2022-10-31T07:35:54.095Z,51.30
2022-10-31T07:38:20.568Z,50.83
2022-10-31T07:40:52.112Z,51.47
2022-10-31T07:43:18.518Z,53.40
2022-10-31T07:45:45.054Z,51.65
2022-10-31T07:48:11.744Z,49.72
2022-10-31T07:50:38.167Z,51.47
2022-10-31T07:53:09.911Z,51.63
2022-10-31T07:55:37.045Z,56.67
2022-10-31T07:58:08.813Z,50.25
2022-10-31T08:00:36.908Z,50.50
2022-10-31T08:03:08.939Z,50.13
2022-10-31T08:05:36.444Z,50.88
2022-10-31T08:08:04.291Z,47.70
2022-10-31T08:10:31.383Z,49.47
2022-10-31T08:13:03.521Z,47.13
2022-10-31T08:15:30.233Z,48.88
2022-10-31T08:17:56.596Z,48.63
2022-10-31T08:20:23.328Z,49.80
2022-10-31T08:23:02.402Z,50.78
2022-10-31T08:25:33.862Z,47.28
2022-10-31T08:28:04.631Z,47.75
2022-10-31T08:30:34.691Z,45.47
2022-10-31T08:33:13.724Z,45.83
2022-10-31T08:35:40.790Z,44.45
2022-10-31T08:38:08.843Z,47.50
2022-10-31T08:40:36.453Z,44.67
2022-10-31T08:43:08.112Z,44.58
2022-10-31T08:45:35.382Z,45.30
2022-10-31T08:48:05.025Z,43.63
2022-10-31T08:50:33.714Z,43.53
2022-10-31T08:53:10.470Z,41.22
2022-10-31T08:55:38.245Z,40.83
2022-10-31T08:58:07.061Z,43.58
2022-10-31T09:00:35.095Z,39.92
2022-10-31T09:03:04.611Z,39.95
2022-10-31T09:05:31.929Z,38.58
2022-10-31T09:08:00.671Z,36.55
2022-10-31T09:10:28.664Z,37.83
2022-10-31T09:12:58.997Z,36.03
2022-10-31T09:15:26.518Z,42.25
2022-10-31T09:17:53.388Z,39.90
2022-10-31T09:20:20.596Z,35.83
2022-10-31T09:22:47.253Z,36.08
2022-10-31T09:25:13.776Z,35.53
2022-10-31T09:27:40.388Z,35.15
2022-10-31T09:30:07.400Z,34.40
2022-10-31T09:32:33.722Z,38.35
2022-10-31T09:35:00.181Z,35.28
2022-10-31T09:37:26.725Z,34.33
2022-10-31T09:39:53.140Z,35.30
2022-10-31T09:42:48.238Z,35.53
2022-10-31T09:45:48.514Z,36.50
2022-10-31T09:50:49.799Z,32.30
2022-10-31T09:53:37.550Z,33.53
2022-10-31T09:56:09.024Z,33.60
2022-10-31T09:58:44.629Z,34.75
2022-10-31T10:01:27.717Z,33.72
2022-10-31T10:04:00.374Z,34.58
2022-10-31T10:06:30.609Z,35.10
2022-10-31T10:11:39.601Z,30.17
2022-10-31T10:14:05.910Z,30.10
2022-10-31T10:16:56.915Z,30.88
2022-10-31T10:20:06.112Z,27.67
2022-10-31T10:22:57.510Z,24.40
2022-10-31T10:25:28.691Z,24.45
2022-10-31T10:28:10.455Z,25.23
2022-10-31T10:30:42.719Z,24.58
2022-10-31T10:33:20.684Z,25.00
2022-10-31T10:36:02.407Z,26.85
2022-10-31T10:38:39.336Z,25.70
2022-10-31T10:41:13.169Z,25.15
2022-10-31T10:43:40.354Z,23.75
2022-10-31T10:46:28.408Z,28.52
2022-10-31T10:49:05.633Z,26.77
2022-10-31T10:54:55.546Z,25.73
2022-10-31T10:57:40.504Z,24.05
2022-10-31T11:00:43.751Z,24.45
2022-10-31T11:03:11.647Z,23.50
2022-10-31T11:05:43.227Z,22.48
2022-10-31T11:08:10.008Z,22.75
2022-10-31T11:10:36.458Z,22.02
2022-10-31T11:13:08.285Z,23.40
2022-10-31T11:15:49.164Z,22.42
2022-10-31T11:20:55.872Z,25.00
2022-10-31T11:23:24.719Z,27.08
2022-10-31T11:25:53.987Z,23.98
2022-10-31T11:28:20.482Z,22.60
2022-10-31T11:30:53.862Z,23.38
2022-10-31T11:33:22.749Z,23.27
2022-10-31T11:35:52.102Z,22.52
2022-10-31T11:38:25.726Z,22.92
2022-10-31T11:40:57.450Z,24.17
2022-10-31T11:43:24.873Z,22.05
2022-10-31T11:45:51.810Z,22.23
2022-10-31T11:48:25.235Z,22.80
2022-10-31T11:50:59.059Z,22.75
2022-10-31T11:53:31.741Z,24.30
2022-10-31T11:56:05.940Z,23.33
2022-10-31T11:58:32.396Z,21.90
2022-10-31T12:00:59.734Z,25.67
2022-10-31T12:03:50.209Z,25.58
2022-10-31T12:06:31.754Z,26.45
2022-10-31T12:08:58.137Z,27.73
2022-10-31T12:11:30.361Z,26.98
2022-10-31T12:14:26.596Z,27.75
2022-10-31T12:17:06.909Z,25.00
2022-10-31T12:19:43.443Z,24.67
2022-10-31T12:22:21.339Z,27.55
2022-10-31T12:24:57.782Z,28.92
2022-10-31T12:27:39.288Z,27.27
2022-10-31T12:30:24.913Z,29.00
2022-10-31T12:33:12.183Z,27.60
2022-10-31T12:35:45.635Z,30.13
2022-10-31T12:38:30.881Z,31.45
2022-10-31T12:41:08.926Z,32.58
2022-10-31T12:43:59.851Z,31.40
2022-10-31T12:46:55.480Z,31.58
2022-10-31T12:49:37.085Z,32.38
2022-10-31T12:52:15.658Z,34.70
2022-10-31T12:54:52.863Z,37.78
2022-10-31T12:57:55.456Z,40.20
2022-10-31T13:00:24.227Z,39.60
2022-10-31T13:02:57.458Z,40.17
2022-10-31T13:05:45.534Z,39.63
2022-10-31T13:08:15.382Z,42.22
2022-10-31T13:10:50.237Z,41.75
2022-10-31T13:13:22.692Z,41.72
2022-10-31T13:15:54.439Z,40.95
2022-10-31T13:18:39.485Z,40.92
2022-10-31T13:21:12.712Z,37.17
2022-10-31T13:23:56.607Z,35.83
2022-10-31T13:26:38.173Z,34.63
2022-10-31T13:29:16.665Z,36.20
2022-10-31T13:31:43.678Z,36.00
2022-10-31T13:34:26.569Z,35.63
2022-10-31T13:37:05.216Z,36.80
2022-10-31T13:39:50.373Z,36.33
2022-10-31T13:42:32.576Z,37.40
2022-10-31T13:45:13.395Z,36.08
2022-10-31T13:47:42.231Z,34.60
2022-10-31T13:50:24.491Z,34.67
2022-10-31T13:52:51.009Z,35.25
2022-10-31T13:55:43.890Z,33.72
2022-10-31T13:58:25.016Z,32.50
2022-10-31T14:01:14.649Z,33.47
2022-10-31T14:04:04.996Z,33.88
2022-10-31T14:07:00.412Z,36.60
2022-10-31T14:09:31.000Z,35.53
2022-10-31T14:12:01.835Z,37.72
2022-10-31T14:14:34.916Z,37.75
2022-10-31T14:17:02.364Z,41.33
2022-10-31T14:19:28.914Z,39.38
2022-10-31T14:21:59.414Z,39.60
2022-10-31T14:24:27.608Z,39.92
2022-10-31T14:26:57.100Z,39.17
2022-10-31T14:29:33.207Z,38.58
2022-10-31T14:32:04.019Z,38.33
2022-10-31T14:34:45.422Z,36.35
2022-10-31T14:37:32.787Z,33.13
2022-10-31T14:40:36.234Z,33.35
2022-10-31T14:43:44.364Z,32.33
2022-10-31T14:46:25.800Z,30.38
2022-10-31T14:49:21.375Z,29.48
2022-10-31T14:51:51.678Z,30.35
2022-10-31T14:54:40.377Z,30.52
2022-10-31T14:57:28.826Z,31.45
2022-10-31T15:00:05.682Z,28.95
2022-10-31T15:02:43.944Z,29.70
2022-10-31T15:05:40.680Z,30.80
2022-10-31T15:08:37.707Z,28.35
2022-10-31T15:11:27.571Z,28.52
2022-10-31T15:14:31.096Z,31.10
2022-10-31T15:17:34.472Z,29.02
2022-10-31T15:20:07.969Z,29.88
2022-10-31T15:22:35.366Z,28.10
2022-10-31T15:25:02.630Z,29.42
2022-10-31T15:27:38.223Z,30.58
2022-10-31T15:30:28.710Z,29.35
2022-10-31T15:32:59.740Z,28.92
2022-10-31T15:35:34.777Z,29.13
2022-10-31T15:38:18.677Z,30.45
2022-10-31T15:41:17.273Z,29.83
2022-10-31T15:43:53.216Z,31.90
2022-10-31T15:46:27.837Z,29.92
2022-10-31T15:48:59.191Z,31.17
2022-10-31T15:51:44.878Z,30.20
2022-10-31T15:54:29.663Z,30.00
2022-10-31T15:57:00.183Z,30.45
2022-10-31T15:59:37.888Z,31.58
2022-10-31T16:05:41.868Z,31.05
2022-10-31T16:09:07.449Z,29.90
2022-10-31T16:15:49.298Z,30.65
2022-10-31T16:18:50.810Z,32.30
2022-10-31T16:21:27.071Z,28.20
2022-10-31T16:23:58.691Z,31.55
2022-10-31T16:26:26.107Z,29.20
2022-10-31T16:29:03.386Z,30.60
2022-10-31T16:31:39.318Z,32.30
2022-10-31T16:34:14.104Z,31.58
2022-10-31T16:36:40.924Z,32.20
2022-10-31T16:39:08.635Z,32.47
2022-10-31T16:41:43.880Z,33.13
2022-10-31T16:44:27.668Z,32.65
2022-10-31T16:47:15.331Z,31.83
2022-10-31T16:49:50.335Z,29.85
2022-10-31T16:52:17.961Z,29.10
2022-10-31T16:54:44.756Z,29.08
2022-10-31T16:57:27.766Z,29.40
2022-10-31T16:59:57.206Z,28.30
2022-10-31T17:02:23.871Z,29.83
2022-10-31T17:04:53.741Z,27.45
2022-10-31T17:07:23.266Z,30.10
2022-10-31T17:09:49.748Z,30.17
2022-10-31T17:12:22.504Z,30.90
2022-10-31T17:14:51.788Z,31.20
2022-10-31T17:17:18.484Z,32.77
2022-10-31T17:19:44.835Z,29.38
2022-10-31T17:22:13.159Z,30.85
2022-10-31T17:24:39.586Z,32.90
2022-10-31T17:27:06.086Z,32.38
2022-10-31T17:29:32.807Z,30.70
2022-10-31T17:32:00.317Z,31.75
2022-10-31T17:34:26.752Z,32.58
2022-10-31T17:36:53.604Z,32.72
2022-10-31T17:39:20.345Z,31.90
2022-10-31T17:41:49.840Z,33.55
2022-10-31T17:44:16.231Z,31.58
2022-10-31T17:46:42.678Z,31.02
2022-10-31T17:49:14.016Z,31.00
2022-10-31T17:51:40.541Z,32.88
2022-10-31T17:54:08.756Z,33.28
2022-10-31T17:56:35.298Z,31.73
2022-10-31T17:59:02.104Z,32.33
2022-10-31T18:01:28.590Z,32.65
2022-10-31T18:03:55.228Z,30.98
2022-10-31T18:06:21.561Z,31.40
2022-10-31T18:08:47.979Z,33.03
2022-10-31T18:11:17.166Z,33.22
2022-10-31T18:13:43.668Z,31.20
2022-10-31T18:16:12.854Z,33.47
2022-10-31T18:18:39.751Z,33.97
2022-10-31T18:21:06.286Z,34.10
2022-10-31T18:23:32.730Z,35.83
2022-10-31T18:25:59.099Z,37.83
2022-10-31T18:28:25.557Z,37.88
2022-10-31T18:30:51.962Z,37.03
2022-10-31T18:33:18.430Z,39.22
2022-10-31T18:35:45.253Z,37.88
2022-10-31T18:38:12.086Z,37.42
2022-10-31T18:40:39.248Z,37.58
2022-10-31T18:43:05.967Z,39.38
2022-10-31T18:45:45.740Z,35.38
2022-10-31T18:48:14.823Z,37.42
2022-10-31T18:50:41.611Z,38.42
2022-10-31T18:53:08.028Z,38.35
2022-10-31T18:55:38.526Z,37.78
2022-10-31T19:00:31.208Z,35.17
2022-10-31T19:02:57.785Z,36.75
2022-10-31T19:05:24.269Z,37.22
2022-10-31T19:07:50.634Z,35.58
2022-10-31T19:10:17.114Z,39.10
2022-10-31T19:12:43.551Z,36.35
2022-10-31T19:15:10.492Z,36.35
2022-10-31T19:17:36.816Z,33.55
2022-10-31T19:20:03.582Z,33.78
2022-10-31T19:22:31.325Z,33.03
2022-10-31T19:24:57.736Z,31.73
2022-10-31T19:27:26.707Z,33.85
2022-10-31T19:29:53.080Z,31.52
2022-10-31T19:32:19.495Z,33.38
2022-10-31T19:34:45.878Z,32.83
2022-10-31T19:37:12.251Z,32.45
2022-10-31T19:39:43.719Z,31.33
2022-10-31T19:42:11.047Z,32.85
2022-10-31T19:44:37.515Z,31.35
2022-10-31T19:47:03.890Z,32.15
2022-10-31T19:49:30.350Z,31.65
2022-10-31T19:51:56.853Z,33.83
2022-10-31T19:54:23.909Z,31.70
2022-10-31T19:56:50.359Z,32.35
2022-10-31T19:59:16.800Z,34.85
2022-10-31T20:01:43.413Z,32.63
2022-10-31T20:04:10.032Z,33.33
2022-10-31T20:06:38.771Z,32.28
2022-10-31T20:09:09.791Z,32.08
2022-10-31T20:11:38.381Z,32.75
2022-10-31T20:14:05.699Z,31.45
2022-10-31T20:16:32.984Z,33.55
2022-10-31T20:18:59.792Z,32.28
2022-10-31T20:21:28.774Z,31.67
2022-10-31T20:24:00.693Z,32.30
2022-10-31T20:26:28.413Z,32.28
2022-10-31T20:28:58.701Z,34.05
2022-10-31T20:33:53.609Z,33.28
2022-10-31T20:36:23.393Z,32.50
2022-10-31T20:38:51.314Z,33.70
2022-10-31T20:41:17.870Z,33.78
2022-10-31T20:43:44.856Z,36.90
2022-10-31T20:46:14.274Z,35.15
2022-10-31T20:48:41.068Z,35.30
2022-10-31T20:53:43.711Z,35.92
2022-10-31T20:56:18.497Z,36.75
2022-10-31T20:58:45.782Z,36.97
2022-10-31T21:01:13.809Z,35.28
2022-10-31T21:03:42.933Z,34.97
2022-10-31T21:06:10.931Z,37.65
2022-10-31T21:08:38.122Z,36.72
2022-10-31T21:11:11.505Z,38.83
2022-10-31T21:13:40.787Z,36.65
2022-10-31T21:16:17.736Z,35.28
2022-10-31T21:18:45.212Z,37.10
2022-10-31T21:21:18.186Z,37.40
2022-10-31T21:23:45.463Z,36.42
2022-10-31T21:26:15.374Z,37.03
2022-10-31T21:28:42.580Z,36.58
2022-10-31T21:31:14.578Z,36.75
2022-10-31T21:33:41.868Z,37.85
2022-10-31T21:36:09.125Z,40.25
2022-10-31T21:38:36.079Z,39.05
2022-10-31T21:41:05.479Z,39.55
2022-10-31T21:43:34.694Z,37.92
2022-10-31T21:46:11.566Z,38.95
2022-10-31T21:48:41.397Z,36.53
2022-10-31T21:51:34.995Z,38.15
2022-10-31T21:54:20.314Z,40.53
2022-10-31T21:56:46.940Z,39.83
2022-10-31T21:59:13.541Z,42.15
2022-10-31T22:01:40.156Z,41.35
2022-10-31T22:04:06.712Z,41.05
2022-10-31T22:06:33.284Z,43.03
2022-10-31T22:09:01.422Z,41.88
2022-10-31T22:11:28.746Z,42.45
2022-10-31T22:13:55.699Z,42.47
2022-10-31T22:16:24.205Z,40.47
2022-10-31T22:18:56.042Z,40.17
2022-10-31T22:21:25.123Z,42.95
2022-10-31T22:24:01.954Z,39.90
2022-10-31T22:26:31.873Z,42.42
2022-10-31T22:29:01.978Z,41.95
2022-10-31T22:31:29.709Z,42.80
2022-10-31T22:33:57.116Z,41.75
2022-10-31T22:36:26.724Z,41.50
2022-10-31T22:38:53.601Z,43.63
2022-10-31T22:41:22.822Z,42.42
2022-10-31T22:43:49.805Z,42.00
2022-10-31T22:46:19.321Z,44.13
2022-10-31T22:48:48.410Z,43.40
2022-10-31T22:51:19.324Z,44.05
2022-10-31T22:53:47.008Z,43.42
2022-10-31T22:56:20.234Z,43.75
2022-10-31T22:58:47.659Z,42.45
2022-10-31T23:01:19.688Z,43.25
2022-10-31T23:03:47.044Z,41.38
2022-10-31T23:06:16.634Z,44.25
2022-10-31T23:08:44.072Z,44.83
2022-10-31T23:11:15.760Z,44.80
2022-10-31T23:14:00.788Z,44.92
2022-10-31T23:16:27.198Z,43.47
2022-10-31T23:18:53.579Z,41.00
2022-10-31T23:21:40.406Z,45.28
2022-10-31T23:24:06.913Z,44.92
2022-10-31T23:26:52.087Z,42.97
2022-10-31T23:29:18.492Z,44.03
2022-10-31T23:31:44.886Z,42.03
2022-10-31T23:34:11.821Z,46.67
2022-10-31T23:36:38.361Z,42.80
2022-10-31T23:39:04.726Z,43.28
2022-10-31T23:41:31.085Z,45.58
2022-10-31T23:43:57.538Z,46.65
2022-10-31T23:46:23.949Z,46.75
2022-10-31T23:48:51.100Z,48.60
2022-10-31T23:51:17.585Z,46.05
2022-10-31T23:53:45.441Z,47.15
2022-10-31T23:56:12.772Z,46.30
2022-10-31T23:58:39.249Z,46.60
